Time;durP1;ratioP1;P1;durP2;ratioP2;P2;SDS_P1;SDS_P2;PMS_P1;PMS_P2;Temp;Humidity;BMP_temperature;BMP_pressure;BME280_temperature;BME280_humidity;BME280_pressure;Samples;Min_cycle;Max_cycle;Signal;HPM_P1;HPM_P2
2023/12/22 00:01:47;;;;;;;1.60;0.60;;;;;;;;;;5053897;28;20211;-85
2023/12/22 00:04:52;;;;;;;1.73;0.70;;;;;;;;;;5053864;28;20191;-86
2023/12/22 00:07:56;;;;;;;3.20;0.87;;;;;;;;;;5053646;28;20671;-85
2023/12/22 00:11:00;;;;;;;2.80;1.43;;;;;;;;;;5078851;28;20184;-87
2023/12/22 00:14:04;;;;;;;2.40;0.90;;;;;;;;;;5066430;28;20517;-86
2023/12/22 00:17:08;;;;;;;2.13;0.70;;;;;;;;;;5053551;28;20219;-86
2023/12/22 00:20:14;;;;;;;2.13;0.60;;;;;;;;;;5065472;28;21078;-86
2023/12/22 00:23:18;;;;;;;3.57;0.80;;;;;;;;;;5064852;28;20211;-86
2023/12/22 00:26:23;;;;;;;2.70;0.67;;;;;;;;;;5077540;28;20215;-86
2023/12/22 00:29:28;;;;;;;1.80;0.60;;;;;;;;;;5053773;28;20538;-86
2023/12/22 00:32:32;;;;;;;2.93;0.77;;;;;;;;;;5065803;28;20175;-86
2023/12/22 00:35:36;;;;;;;3.77;1.00;;;;;;;;;;5065271;28;20179;-86
2023/12/22 00:38:40;;;;;;;3.83;0.60;;;;;;;;;;5054637;28;20184;-86
2023/12/22 00:41:44;;;;;;;4.70;0.93;;;;;;;;;;5054495;28;20183;-86
2023/12/22 00:44:51;;;;;;;1.73;0.70;;;;;;;;;;5066060;28;20176;-86
2023/12/22 00:47:56;;;;;;;3.23;0.80;;;;;;;;;;5065340;28;20617;-87
2023/12/22 00:51:00;;;;;;;5.33;0.90;;;;;;;;;;5053743;28;20179;-86
2023/12/22 00:54:05;;;;;;;2.47;0.90;;;;;;;;;;5064781;28;20183;-86
2023/12/22 00:57:09;;;;;;;4.23;0.80;;;;;;;;;;5064620;28;20215;-86
2023/12/22 01:00:13;;;;;;;2.83;0.80;;;;;;;;;;5065089;28;20184;-86
2023/12/22 01:03:17;;;;;;;3.50;0.80;;;;;;;;;;5064978;28;20211;-86
2023/12/22 01:06:21;;;;;;;1.80;1.00;;;;;;;;;;5064995;28;20215;-86
2023/12/22 01:09:25;;;;;;;2.20;0.80;;;;;;;;;;5077870;28;20180;-85
2023/12/22 01:12:30;;;;;;;2.40;0.80;;;;;;;;;;5076928;28;20180;-86
2023/12/22 01:15:35;;;;;;;4.17;0.90;;;;;;;;;;5068135;28;20188;-86
2023/12/22 01:18:42;;;;;;;2.00;0.83;;;;;;;;;;5057519;28;20187;-86
2023/12/22 01:21:46;;;;;;;1.17;0.70;;;;;;;;;;5046144;28;20176;-87
2023/12/22 01:24:50;;;;;;;2.47;0.97;;;;;;;;;;5067888;28;20176;-86
2023/12/22 01:27:54;;;;;;;0.80;0.60;;;;;;;;;;5068580;28;20188;-85
2023/12/22 01:30:59;;;;;;;2.37;0.60;;;;;;;;;;5068268;28;20179;-86
2023/12/22 01:34:03;;;;;;;4.27;0.80;;;;;;;;;;5056797;28;20175;-86
2023/12/22 01:37:07;;;;;;;1.50;0.70;;;;;;;;;;5056680;28;20691;-85
2023/12/22 01:40:11;;;;;;;1.63;0.60;;;;;;;;;;5057516;28;20176;-86
2023/12/22 01:43:21;;;;;;;0.83;0.60;;;;;;;;;;5068322;28;20553;-86
2023/12/22 01:46:25;;;;;;;1.23;0.80;;;;;;;;;;5056852;28;20215;-85
2023/12/22 01:49:29;;;;;;;3.43;0.70;;;;;;;;;;5068234;28;20176;-86
2023/12/22 01:52:33;;;;;;;2.10;0.70;;;;;;;;;;5081070;28;20179;-86
2023/12/22 01:55:38;;;;;;;3.03;0.60;;;;;;;;;;5068310;28;20180;-85
2023/12/22 01:58:41;;;;;;;1.77;0.77;;;;;;;;;;5068336;28;20624;-85
2023/12/22 02:01:56;;;;;;;2.63;0.70;;;;;;;;;;5046470;28;20180;-85
2023/12/22 02:05:00;;;;;;;2.90;0.70;;;;;;;;;;5068407;28;20172;-86
2023/12/22 02:08:05;;;;;;;3.90;0.80;;;;;;;;;;5056864;28;20203;-86
2023/12/22 02:11:09;;;;;;;2.60;0.80;;;;;;;;;;5067439;28;20175;-85
2023/12/22 02:14:13;;;;;;;2.13;0.50;;;;;;;;;;5044099;28;20175;-86
2023/12/22 02:17:29;;;;;;;2.53;0.80;;;;;;;;;;5055673;28;20211;-86
2023/12/22 02:20:33;;;;;;;2.40;0.70;;;;;;;;;;5067354;28;20510;-86
2023/12/22 02:23:39;;;;;;;2.97;0.60;;;;;;;;;;5068132;28;20664;-86
2023/12/22 02:26:47;;;;;;;2.17;0.57;;;;;;;;;;5079390;28;20219;-85
2023/12/22 02:30:08;;;;;;;1.77;0.60;;;;;;;;;;5056796;28;20175;-85
2023/12/22 02:33:15;;;;;;;2.37;0.80;;;;;;;;;;5067284;28;20167;-85
2023/12/22 02:36:20;;;;;;;1.47;0.70;;;;;;;;;;5067728;28;20568;-86
2023/12/22 02:39:25;;;;;;;1.70;0.60;;;;;;;;;;5067275;28;20648;-85
2023/12/22 02:42:30;;;;;;;1.63;0.40;;;;;;;;;;5066899;28;20628;-85
2023/12/22 02:45:34;;;;;;;0.60;0.40;;;;;;;;;;5066836;28;20523;-85
2023/12/22 02:48:38;;;;;;;2.83;0.93;;;;;;;;;;5079166;28;20183;-85
2023/12/22 02:51:42;;;;;;;2.37;1.07;;;;;;;;;;5066574;28;20624;-86
2023/12/22 02:54:47;;;;;;;1.03;0.60;;;;;;;;;;5079227;28;20175;-87
2023/12/22 02:57:51;;;;;;;1.20;0.50;;;;;;;;;;5067026;28;20176;-86
2023/12/22 03:00:55;;;;;;;2.07;0.47;;;;;;;;;;5054901;28;20187;-86
2023/12/22 03:03:59;;;;;;;1.60;0.50;;;;;;;;;;5066647;28;20672;-85
2023/12/22 03:07:04;;;;;;;2.00;0.50;;;;;;;;;;5067087;28;20222;-86
2023/12/22 03:10:08;;;;;;;0.50;0.40;;;;;;;;;;5066284;28;20175;-86
2023/12/22 03:13:12;;;;;;;0.40;0.30;;;;;;;;;;5066493;28;20183;-86
2023/12/22 03:16:16;;;;;;;1.40;0.40;;;;;;;;;;5065801;28;20219;-86
2023/12/22 03:19:22;;;;;;;1.17;0.70;;;;;;;;;;5065014;28;20180;-86
2023/12/22 03:22:28;;;;;;;0.70;0.50;;;;;;;;;;5064659;28;20179;-86
2023/12/22 03:25:33;;;;;;;0.40;0.40;;;;;;;;;;5042537;28;20179;-86
2023/12/22 03:28:38;;;;;;;1.37;0.97;;;;;;;;;;5054124;28;20175;-85
2023/12/22 03:31:42;;;;;;;2.50;0.50;;;;;;;;;;5065301;28;20175;-86
2023/12/22 03:34:48;;;;;;;1.70;0.60;;;;;;;;;;5053897;28;20176;-86
2023/12/22 03:37:52;;;;;;;0.50;0.40;;;;;;;;;;5063913;28;20179;-86
2023/12/22 03:40:56;;;;;;;0.70;0.60;;;;;;;;;;5063904;28;20175;-87
2023/12/22 03:44:00;;;;;;;0.97;0.60;;;;;;;;;;5052791;28;20207;-86
2023/12/22 03:47:05;;;;;;;0.80;0.50;;;;;;;;;;5075951;28;20215;-87
2023/12/22 03:50:09;;;;;;;0.80;0.50;;;;;;;;;;5052672;28;20183;-87
2023/12/22 03:53:13;;;;;;;2.00;1.00;;;;;;;;;;5064008;28;20179;-86
2023/12/22 03:56:18;;;;;;;4.07;0.70;;;;;;;;;;5063762;28;20215;-86
2023/12/22 03:59:23;;;;;;;2.33;0.60;;;;;;;;;;5052182;28;20183;-87
2023/12/22 04:02:27;;;;;;;1.07;0.50;;;;;;;;;;5063752;28;20175;-86
2023/12/22 04:05:31;;;;;;;0.50;0.50;;;;;;;;;;5063469;28;20175;-86
2023/12/22 04:08:36;;;;;;;0.90;0.60;;;;;;;;;;5076055;28;20183;-86
2023/12/22 04:11:41;;;;;;;0.80;0.70;;;;;;;;;;5064238;28;20541;-86
2023/12/22 04:14:45;;;;;;;1.43;0.70;;;;;;;;;;5064436;28;20526;-87
2023/12/22 04:17:49;;;;;;;2.70;0.50;;;;;;;;;;5041703;28;20179;-86
2023/12/22 04:20:55;;;;;;;0.80;0.40;;;;;;;;;;5077159;28;20180;-87
2023/12/22 04:23:59;;;;;;;0.87;0.57;;;;;;;;;;5077051;28;20211;-87
2023/12/22 04:27:03;;;;;;;2.20;0.60;;;;;;;;;;5063481;28;20219;-87
2023/12/22 04:30:07;;;;;;;0.97;0.70;;;;;;;;;;5063329;28;20180;-87
2023/12/22 04:33:11;;;;;;;0.93;0.70;;;;;;;;;;5063827;28;20518;-86
2023/12/22 04:36:16;;;;;;;1.87;0.63;;;;;;;;;;5063382;28;20241;-86
2023/12/22 04:39:20;;;;;;;1.53;0.60;;;;;;;;;;5076107;28;20183;-87
2023/12/22 04:42:25;;;;;;;2.27;0.60;;;;;;;;;;5076003;28;20179;-86
2023/12/22 04:45:29;;;;;;;1.23;0.70;;;;;;;;;;5051666;28;20172;-85
2023/12/22 04:48:33;;;;;;;0.40;0.40;;;;;;;;;;5063268;28;20184;-86
2023/12/22 04:51:37;;;;;;;0.57;0.50;;;;;;;;;;5066943;28;20520;-86
2023/12/22 04:54:41;;;;;;;0.47;0.40;;;;;;;;;;5067172;28;20538;-86
2023/12/22 04:57:45;;;;;;;0.30;0.30;;;;;;;;;;5055177;28;20187;-87
2023/12/22 05:00:50;;;;;;;1.13;0.50;;;;;;;;;;5055128;28;20533;-87
2023/12/22 05:03:54;;;;;;;0.30;0.30;;;;;;;;;;5079010;28;20211;-88
2023/12/22 05:06:58;;;;;;;0.97;0.40;;;;;;;;;;5079098;28;20994;-87
2023/12/22 05:10:02;;;;;;;0.70;0.40;;;;;;;;;;5055329;28;20179;-88
2023/12/22 05:13:08;;;;;;;0.43;0.40;;;;;;;;;;5066402;28;20540;-87
2023/12/22 05:16:12;;;;;;;0.30;0.30;;;;;;;;;;5067026;28;20613;-86
2023/12/22 05:19:16;;;;;;;0.40;0.40;;;;;;;;;;5054187;28;21043;-87
2023/12/22 05:22:20;;;;;;;0.33;0.33;;;;;;;;;;5040971;28;21051;-86
2023/12/22 05:25:24;;;;;;;1.13;0.40;;;;;;;;;;5063143;28;20676;-88
2023/12/22 05:28:28;;;;;;;1.60;0.30;;;;;;;;;;5063815;28;20203;-87
2023/12/22 05:31:34;;;;;;;0.40;0.40;;;;;;;;;;5052104;28;20176;-87
2023/12/22 05:34:38;;;;;;;0.60;0.40;;;;;;;;;;5051427;28;20554;-86
2023/12/22 05:37:42;;;;;;;0.80;0.33;;;;;;;;;;5054236;28;20605;-88
2023/12/22 05:40:48;;;;;;;0.83;0.40;;;;;;;;;;5066264;28;20518;-87
2023/12/22 05:43:52;;;;;;;0.40;0.40;;;;;;;;;;5066007;28;20207;-87
2023/12/22 05:46:57;;;;;;;0.87;0.50;;;;;;;;;;5066626;28;20219;-87
2023/12/22 05:50:01;;;;;;;2.00;0.40;;;;;;;;;;5054776;28;20175;-87
2023/12/22 05:53:05;;;;;;;0.37;0.30;;;;;;;;;;5043182;28;20183;-87
2023/12/22 05:56:19;;;;;;;0.30;0.30;;;;;;;;;;5065983;28;20552;-87
2023/12/22 05:59:23;;;;;;;0.40;0.40;;;;;;;;;;5054338;28;20171;-87
2023/12/22 06:02:27;;;;;;;0.40;0.40;;;;;;;;;;5054254;28;20176;-87
2023/12/22 06:05:31;;;;;;;0.40;0.40;;;;;;;;;;5060611;28;20220;-87
2023/12/22 06:08:37;;;;;;;1.00;0.50;;;;;;;;;;5045538;28;20641;-86
2023/12/22 06:11:41;;;;;;;0.60;0.50;;;;;;;;;;5034133;28;20180;-86
2023/12/22 06:14:45;;;;;;;0.77;0.50;;;;;;;;;;5058474;28;20526;-86
2023/12/22 06:17:49;;;;;;;0.80;0.60;;;;;;;;;;5034057;28;20184;-88
2023/12/22 06:20:54;;;;;;;2.90;0.97;;;;;;;;;;5045402;28;20535;-87
2023/12/22 06:23:58;;;;;;;0.60;0.43;;;;;;;;;;5045147;28;20595;-86
2023/12/22 06:27:02;;;;;;;0.57;0.40;;;;;;;;;;5022517;28;20211;-87
2023/12/22 06:30:07;;;;;;;0.57;0.57;;;;;;;;;;5034205;28;20184;-86
2023/12/22 06:33:11;;;;;;;1.07;0.70;;;;;;;;;;5033249;28;20539;-85
2023/12/22 06:36:19;;;;;;;1.00;0.60;;;;;;;;;;5033334;28;20610;-84
2023/12/22 06:39:23;;;;;;;0.57;0.43;;;;;;;;;;5057070;28;20535;-86
2023/12/22 06:42:27;;;;;;;0.87;0.60;;;;;;;;;;5033232;28;20543;-85
2023/12/22 06:45:31;;;;;;;1.40;0.50;;;;;;;;;;5047652;28;20590;-86
2023/12/22 06:48:37;;;;;;;0.93;0.47;;;;;;;;;;5036183;28;20539;-84
2023/12/22 06:51:41;;;;;;;0.50;0.50;;;;;;;;;;5035666;28;20872;-84
2023/12/22 06:54:45;;;;;;;0.83;0.50;;;;;;;;;;5047014;28;20547;-82
2023/12/22 06:57:49;;;;;;;1.23;0.50;;;;;;;;;;5045991;28;20559;-83
2023/12/22 07:00:54;;;;;;;0.87;0.70;;;;;;;;;;5046269;28;20546;-83
2023/12/22 07:04:00;;;;;;;1.10;0.50;;;;;;;;;;5034943;28;20603;-83
2023/12/22 07:07:04;;;;;;;4.43;3.30;;;;;;;;;;5045981;28;20638;-83
2023/12/22 07:10:11;;;;;;;0.80;0.80;;;;;;;;;;5045800;28;20531;-85
2023/12/22 07:13:16;;;;;;;2.33;1.33;;;;;;;;;;5044852;28;20634;-86
2023/12/22 07:16:20;;;;;;;11.23;7.90;;;;;;;;;;5034139;28;20618;-86
2023/12/22 07:19:24;;;;;;;10.83;7.27;;;;;;;;;;5044662;28;20877;-86
2023/12/22 07:22:29;;;;;;;2.97;1.77;;;;;;;;;;5057382;28;20874;-86
2023/12/22 07:25:38;;;;;;;3.70;3.07;;;;;;;;;;5044767;28;20591;-86
2023/12/22 07:28:42;;;;;;;2.03;1.20;;;;;;;;;;5057056;28;20540;-85
2023/12/22 07:31:46;;;;;;;1.70;1.50;;;;;;;;;;5045139;28;20547;-85
2023/12/22 07:34:50;;;;;;;2.13;1.00;;;;;;;;;;5046250;28;20539;-84
2023/12/22 07:37:55;;;;;;;15.83;8.27;;;;;;;;;;5035240;28;21083;-85
2023/12/22 07:40:59;;;;;;;5.07;3.20;;;;;;;;;;5034903;28;20551;-84
2023/12/22 07:44:03;;;;;;;3.23;2.23;;;;;;;;;;5035183;28;20211;-85
2023/12/22 07:47:09;;;;;;;5.00;3.03;;;;;;;;;;5034643;28;20622;-84
2023/12/22 07:50:13;;;;;;;1.10;1.00;;;;;;;;;;5046736;28;20180;-85
2023/12/22 07:53:17;;;;;;;1.40;1.30;;;;;;;;;;5044515;28;20539;-85
2023/12/22 07:56:21;;;;;;;1.00;0.53;;;;;;;;;;5056556;28;20211;-85
2023/12/22 07:59:25;;;;;;;1.07;0.80;;;;;;;;;;5033271;28;20630;-84
2023/12/22 08:02:29;;;;;;;1.33;0.73;;;;;;;;;;5057598;28;20539;-86
2023/12/22 08:05:34;;;;;;;5.03;4.43;;;;;;;;;;5033825;28;20595;-86
2023/12/22 08:08:38;;;;;;;2.27;2.00;;;;;;;;;;5034017;28;20882;-86
2023/12/22 08:11:42;;;;;;;1.70;1.60;;;;;;;;;;5045842;28;20180;-83
2023/12/22 08:14:46;;;;;;;3.67;2.20;;;;;;;;;;5045587;28;20184;-80
2023/12/22 08:17:51;;;;;;;3.20;1.10;;;;;;;;;;5057422;28;20184;-82
2023/12/22 08:20:55;;;;;;;4.07;1.07;;;;;;;;;;5045568;28;20184;-83
2023/12/22 08:23:59;;;;;;;4.43;1.03;;;;;;;;;;5057889;28;20180;-81
2023/12/22 08:27:04;;;;;;;2.37;1.00;;;;;;;;;;5060975;28;20216;-84
2023/12/22 08:30:10;;;;;;;2.27;0.90;;;;;;;;;;5063614;28;20171;-83
2023/12/22 08:33:15;;;;;;;2.00;1.17;;;;;;;;;;5061145;28;20172;-86
2023/12/22 08:36:18;;;;;;;3.87;1.27;;;;;;;;;;5037205;28;20208;-87
2023/12/22 08:39:24;;;;;;;1.87;0.80;;;;;;;;;;5048583;28;20188;-87
2023/12/22 08:42:30;;;;;;;3.17;1.00;;;;;;;;;;5037124;28;20180;-88
2023/12/22 08:45:34;;;;;;;4.93;1.53;;;;;;;;;;5060701;28;20203;-87
2023/12/22 08:48:38;;;;;;;3.50;1.20;;;;;;;;;;5060785;28;20617;-87
2023/12/22 08:51:42;;;;;;;4.13;1.40;;;;;;;;;;5038365;28;20625;-87
2023/12/22 08:54:46;;;;;;;2.00;0.90;;;;;;;;;;5049030;28;20184;-87
2023/12/22 08:57:51;;;;;;;3.13;1.30;;;;;;;;;;5062889;28;20180;-88
2023/12/22 09:00:55;;;;;;;4.30;1.47;;;;;;;;;;5025430;28;20184;-88
2023/12/22 09:03:59;;;;;;;4.97;1.10;;;;;;;;;;5036443;28;20185;-89
2023/12/22 09:07:04;;;;;;;2.60;1.70;;;;;;;;;;5062053;28;20223;-87
2023/12/22 09:10:08;;;;;;;3.40;1.30;;;;;;;;;;5047801;28;20176;-87
2023/12/22 09:13:12;;;;;;;6.07;1.27;;;;;;;;;;5059657;28;20180;-88
2023/12/22 09:16:24;;;;;;;5.83;1.43;;;;;;;;;;5060406;28;20216;-87
2023/12/22 09:19:28;;;;;;;3.47;1.50;;;;;;;;;;5036915;28;20176;-87
2023/12/22 09:22:32;;;;;;;4.43;1.50;;;;;;;;;;5048522;28;20184;-87
2023/12/22 09:25:37;;;;;;;5.20;2.13;;;;;;;;;;5024642;28;20577;-87
2023/12/22 09:28:41;;;;;;;1.87;1.50;;;;;;;;;;5036356;28;20522;-87
2023/12/22 09:31:45;;;;;;;2.43;1.10;;;;;;;;;;5047396;28;20184;-87
2023/12/22 09:34:49;;;;;;;2.10;1.07;;;;;;;;;;5059629;28;20176;-87
2023/12/22 09:37:54;;;;;;;2.30;1.03;;;;;;;;;;5165905;22;20229;-83
2023/12/22 09:40:58;;;;;;;4.27;1.23;;;;;;;;;;5107569;28;20174;-86
2023/12/22 09:44:05;;;;;;;3.43;0.70;;;;;;;;;;5096590;28;20174;-84
2023/12/22 09:47:12;;;;;;;5.33;1.20;;;;;;;;;;5108375;28;20567;-85
2023/12/22 09:50:16;;;;;;;23.97;13.97;;;;;;;;;;5107422;28;20519;-85
2023/12/22 09:53:20;;;;;;;6.43;3.93;;;;;;;;;;5107972;28;20174;-85
2023/12/22 09:56:25;;;;;;;3.57;1.00;;;;;;;;;;5120949;28;20210;-85
2023/12/22 09:59:33;;;;;;;2.73;1.53;;;;;;;;;;5108481;28;20175;-84
2023/12/22 10:02:37;;;;;;;4.80;1.60;;;;;;;;;;5109379;28;20516;-85
2023/12/22 10:05:43;;;;;;;2.33;1.27;;;;;;;;;;5095949;28;20205;-85
2023/12/22 10:08:50;;;;;;;3.47;1.03;;;;;;;;;;5107674;28;20182;-85
2023/12/22 10:11:55;;;;;;;5.37;1.53;;;;;;;;;;5106907;28;20178;-85
2023/12/22 10:15:00;;;;;;;3.43;1.80;;;;;;;;;;5096472;28;20182;-84
2023/12/22 10:18:08;;;;;;;6.43;1.70;;;;;;;;;;5099992;28;20206;-85
2023/12/22 10:21:13;;;;;;;7.23;1.90;;;;;;;;;;5100396;28;20191;-83
2023/12/22 10:24:37;;;;;;;6.37;1.40;;;;;;;;;;5111741;28;20178;-83
2023/12/22 10:27:42;;;;;;;3.47;1.33;;;;;;;;;;5112038;28;20210;-83
2023/12/22 10:30:48;;;;;;;4.63;1.57;;;;;;;;;;5096047;28;20627;-85
2023/12/22 10:33:53;;;;;;;4.47;1.00;;;;;;;;;;5107953;28;20175;-85
2023/12/22 10:36:59;;;;;;;1.83;1.00;;;;;;;;;;5107270;28;20222;-85
2023/12/22 10:40:08;;;;;;;2.90;1.17;;;;;;;;;;5107448;28;20521;-86
2023/12/22 10:43:13;;;;;;;2.63;0.90;;;;;;;;;;5105745;28;20174;-85
2023/12/22 10:46:17;;;;;;;2.03;0.77;;;;;;;;;;5105235;28;20221;-85
2023/12/22 10:49:22;;;;;;;1.57;0.70;;;;;;;;;;5117882;28;20174;-86
2023/12/22 10:52:27;;;;;;;3.00;0.80;;;;;;;;;;5105461;28;20170;-85
2023/12/22 10:55:31;;;;;;;0.50;0.50;;;;;;;;;;5082518;28;20634;-86
2023/12/22 10:58:35;;;;;;;0.37;0.37;;;;;;;;;;5093055;28;20182;-86
2023/12/22 11:01:40;;;;;;;2.77;0.40;;;;;;;;;;5093434;28;20178;-86
2023/12/22 11:05:00;;;;;;;0.67;0.63;;;;;;;;;;5093662;28;20186;-85
2023/12/22 11:08:08;;;;;;;0.80;0.80;;;;;;;;;;5105363;28;20206;-85
2023/12/22 11:11:26;;;;;;;0.77;0.77;;;;;;;;;;5105980;28;20182;-85
2023/12/22 11:14:32;;;;;;;1.43;1.27;;;;;;;;;;5087233;28;20182;-85
2023/12/22 11:17:40;;;;;;;4.70;2.30;;;;;;;;;;5116894;28;20218;-85
2023/12/22 11:20:46;;;;;;;1.50;1.07;;;;;;;;;;5094665;28;20245;-85
2023/12/22 11:23:51;;;;;;;1.70;1.10;;;;;;;;;;5095527;28;20178;-85
2023/12/22 11:26:58;;;;;;;1.33;0.60;;;;;;;;;;5118662;28;20221;-85
2023/12/22 11:30:08;;;;;;;2.07;0.70;;;;;;;;;;5097408;28;20178;-86
2023/12/22 11:33:13;;;;;;;3.07;0.90;;;;;;;;;;5109482;28;20174;-86
2023/12/22 11:36:18;;;;;;;1.93;1.00;;;;;;;;;;5118069;28;20217;-85
2023/12/22 11:39:22;;;;;;;1.57;0.63;;;;;;;;;;5094150;28;20178;-86
2023/12/22 11:42:31;;;;;;;3.23;0.60;;;;;;;;;;5105404;28;20178;-85
2023/12/22 11:45:36;;;;;;;2.77;1.40;;;;;;;;;;5118849;28;20198;-85
2023/12/22 11:48:47;;;;;;;2.03;0.83;;;;;;;;;;5096448;28;20186;-85
2023/12/22 11:51:51;;;;;;;5.47;1.20;;;;;;;;;;5082209;28;20182;-85
2023/12/22 11:54:56;;;;;;;5.20;2.00;;;;;;;;;;5106840;28;20174;-85
2023/12/22 11:58:33;;;;;;;3.87;1.20;;;;;;;;;;5105342;28;20210;-85
2023/12/22 12:01:38;;;;;;;6.90;1.70;;;;;;;;;;5105939;28;20174;-86
2023/12/22 12:04:44;;;;;;;4.17;1.40;;;;;;;;;;5105325;28;20182;-85
2023/12/22 12:07:49;;;;;;;6.03;1.50;;;;;;;;;;5118741;28;20217;-86
2023/12/22 12:10:54;;;;;;;7.63;1.60;;;;;;;;;;5106570;28;20178;-85
2023/12/22 12:14:11;;;;;;;10.10;1.93;;;;;;;;;;5094623;28;20178;-85
2023/12/22 12:17:18;;;;;;;10.57;1.70;;;;;;;;;;5118090;28;20206;-85
2023/12/22 12:20:23;;;;;;;6.87;1.53;;;;;;;;;;5105956;28;20178;-85
2023/12/22 12:23:27;;;;;;;7.80;1.80;;;;;;;;;;5106033;28;20181;-85
2023/12/22 12:26:33;;;;;;;9.53;1.67;;;;;;;;;;5118735;28;20238;-86
2023/12/22 12:29:39;;;;;;;7.03;1.60;;;;;;;;;;5105884;28;20186;-85
2023/12/22 12:32:44;;;;;;;9.33;2.10;;;;;;;;;;5106533;28;20183;-85
2023/12/22 12:35:49;;;;;;;10.63;2.17;;;;;;;;;;5094221;28;20193;-86
2023/12/22 12:38:58;;;;;;;7.53;1.80;;;;;;;;;;5106165;28;20170;-85
2023/12/22 12:42:07;;;;;;;6.53;1.83;;;;;;;;;;5106399;28;20178;-85
2023/12/22 12:45:11;;;;;;;9.83;1.73;;;;;;;;;;5105271;28;20182;-85
2023/12/22 12:48:17;;;;;;;8.40;1.83;;;;;;;;;;5120198;28;20170;-85
2023/12/22 12:51:22;;;;;;;15.10;5.30;;;;;;;;;;5106851;28;20178;-85
2023/12/22 12:54:27;;;;;;;5.43;2.13;;;;;;;;;;5118291;28;20182;-85
2023/12/22 12:57:32;;;;;;;10.50;2.40;;;;;;;;;;5105392;28;20213;-85
2023/12/22 13:00:36;;;;;;;8.97;1.80;;;;;;;;;;5104689;28;20531;-86
2023/12/22 13:04:07;;;;;;;5.57;1.80;;;;;;;;;;5093462;28;20174;-85
2023/12/22 13:07:12;;;;;;;5.67;1.60;;;;;;;;;;5104710;28;20698;-86
2023/12/22 13:10:25;;;;;;;4.77;2.10;;;;;;;;;;5118720;28;20175;-86
2023/12/22 13:13:29;;;;;;;6.73;1.70;;;;;;;;;;5096010;28;20182;-86
2023/12/22 13:16:34;;;;;;;4.43;1.83;;;;;;;;;;5107700;28;20210;-86
2023/12/22 13:19:39;;;;;;;3.80;1.63;;;;;;;;;;5095990;28;20178;-86
2023/12/22 13:22:44;;;;;;;6.17;1.80;;;;;;;;;;5107395;28;20174;-86
2023/12/22 13:25:48;;;;;;;5.07;1.90;;;;;;;;;;5107845;28;20677;-85
2023/12/22 13:28:57;;;;;;;7.00;2.27;;;;;;;;;;5096879;28;20186;-85
2023/12/22 13:32:01;;;;;;;5.83;2.30;;;;;;;;;;5108058;28;20175;-86
2023/12/22 13:35:06;;;;;;;3.43;1.57;;;;;;;;;;5108422;28;20174;-85
2023/12/22 13:38:10;;;;;;;2.57;1.13;;;;;;;;;;5105655;28;20222;-85
2023/12/22 13:41:18;;;;;;;10.37;2.97;;;;;;;;;;5094446;28;20178;-85
2023/12/22 13:44:22;;;;;;;2.90;1.27;;;;;;;;;;5106912;28;20630;-86
2023/12/22 13:47:26;;;;;;;3.50;1.70;;;;;;;;;;5095701;28;20229;-85
2023/12/22 13:50:31;;;;;;;4.30;1.37;;;;;;;;;;5105228;28;20174;-86
2023/12/22 13:53:46;;;;;;;4.57;1.47;;;;;;;;;;5093743;28;20210;-85
2023/12/22 13:56:51;;;;;;;4.00;2.73;;;;;;;;;;5092446;28;20206;-86
2023/12/22 13:59:55;;;;;;;1.60;1.17;;;;;;;;;;5108564;28;20174;-85
2023/12/22 14:03:01;;;;;;;1.83;1.50;;;;;;;;;;5108726;28;20179;-85
2023/12/22 14:06:07;;;;;;;3.43;1.37;;;;;;;;;;5109858;28;20206;-85
2023/12/22 14:09:11;;;;;;;1.40;1.30;;;;;;;;;;5110154;28;20182;-85
2023/12/22 14:12:16;;;;;;;2.50;1.57;;;;;;;;;;5104490;28;20190;-85
2023/12/22 14:15:20;;;;;;;4.33;1.40;;;;;;;;;;5104761;28;20179;-87
2023/12/22 14:18:24;;;;;;;3.87;1.67;;;;;;;;;;5104323;28;20174;-86
2023/12/22 14:21:28;;;;;;;2.03;1.10;;;;;;;;;;5091858;28;20192;-85
2023/12/22 14:24:34;;;;;;;3.90;1.40;;;;;;;;;;5104332;28;20182;-86
2023/12/22 14:27:38;;;;;;;2.47;1.40;;;;;;;;;;5106223;28;20229;-84
2023/12/22 14:30:42;;;;;;;1.93;1.10;;;;;;;;;;5120313;28;20185;-83
2023/12/22 14:33:46;;;;;;;5.57;4.07;;;;;;;;;;5120246;28;20178;-84
2023/12/22 14:36:51;;;;;;;3.43;1.50;;;;;;;;;;5106664;28;20243;-83
2023/12/22 14:39:55;;;;;;;3.57;1.30;;;;;;;;;;5096067;28;20186;-83
2023/12/22 14:43:01;;;;;;;1.87;1.23;;;;;;;;;;5121591;28;20182;-85
2023/12/22 14:46:07;;;;;;;1.50;1.37;;;;;;;;;;5110294;28;20174;-85
2023/12/22 14:49:11;;;;;;;2.33;1.73;;;;;;;;;;5108518;28;20182;-84
2023/12/22 14:52:15;;;;;;;3.37;1.40;;;;;;;;;;5113845;28;20177;-84
2023/12/22 14:55:20;;;;;;;3.87;1.33;;;;;;;;;;5121251;28;20182;-83
2023/12/22 14:58:24;;;;;;;2.47;1.67;;;;;;;;;;5107547;28;20174;-84
2023/12/22 15:01:29;;;;;;;3.90;1.93;;;;;;;;;;5097950;28;20170;-85
2023/12/22 15:04:33;;;;;;;2.63;2.30;;;;;;;;;;5098132;28;20178;-85
2023/12/22 15:07:37;;;;;;;4.00;1.73;;;;;;;;;;5122792;28;20564;-84
2023/12/22 15:10:41;;;;;;;2.67;1.70;;;;;;;;;;5122021;28;20182;-84
2023/12/22 15:13:45;;;;;;;1.70;1.10;;;;;;;;;;5123866;28;20178;-85
2023/12/22 15:16:51;;;;;;;3.13;1.00;;;;;;;;;;5099026;28;20209;-84
2023/12/22 15:19:55;;;;;;;7.00;4.47;;;;;;;;;;5098393;28;20182;-84
2023/12/22 15:22:59;;;;;;;12.40;5.87;;;;;;;;;;5109995;28;20178;-84
2023/12/22 15:26:03;;;;;;;5.10;3.80;;;;;;;;;;5109464;28;20178;-84
2023/12/22 15:29:08;;;;;;;3.00;1.47;;;;;;;;;;5122949;28;20174;-84
2023/12/22 15:32:12;;;;;;;2.03;1.50;;;;;;;;;;5098632;28;20178;-84
2023/12/22 15:35:16;;;;;;;1.83;1.10;;;;;;;;;;5098484;28;20177;-84
2023/12/22 15:38:20;;;;;;;13.87;7.93;;;;;;;;;;5129396;22;20230;-81
2023/12/22 15:41:31;;;;;;;2.40;1.20;;;;;;;;;;5094295;28;20520;-82
2023/12/22 15:44:40;;;;;;;2.93;1.00;;;;;;;;;;5082635;28;20179;-81
2023/12/22 15:47:44;;;;;;;3.10;1.20;;;;;;;;;;5093106;28;20222;-82
2023/12/22 15:50:49;;;;;;;2.63;1.10;;;;;;;;;;5092796;28;20183;-82
2023/12/22 15:53:56;;;;;;;2.33;1.73;;;;;;;;;;5092678;28;20182;-83
2023/12/22 15:57:02;;;;;;;2.17;1.10;;;;;;;;;;5092599;28;20206;-82
2023/12/22 16:00:07;;;;;;;1.53;1.10;;;;;;;;;;5103835;28;20179;-81
2023/12/22 16:03:13;;;;;;;2.97;1.30;;;;;;;;;;5094146;28;20178;-83
2023/12/22 16:06:18;;;;;;;4.67;2.43;;;;;;;;;;5094494;28;20180;-83
2023/12/22 16:09:22;;;;;;;4.37;2.73;;;;;;;;;;5081008;28;20178;-83
2023/12/22 16:12:26;;;;;;;1.93;1.57;;;;;;;;;;5104879;28;20179;-82
2023/12/22 16:15:31;;;;;;;2.50;1.00;;;;;;;;;;5102425;28;20179;-81
2023/12/22 16:18:36;;;;;;;2.37;1.20;;;;;;;;;;5102334;28;20520;-81
2023/12/22 16:21:42;;;;;;;1.63;1.20;;;;;;;;;;5091787;28;20174;-82
2023/12/22 16:24:46;;;;;;;1.57;0.77;;;;;;;;;;5092436;28;20179;-81
2023/12/22 16:27:50;;;;;;;1.13;0.90;;;;;;;;;;5090404;28;20222;-83
2023/12/22 16:30:54;;;;;;;1.07;1.00;;;;;;;;;;5079009;28;20179;-82
2023/12/22 16:33:59;;;;;;;0.97;0.60;;;;;;;;;;5079569;28;20175;-83
2023/12/22 16:37:03;;;;;;;2.53;1.10;;;;;;;;;;5090785;28;20378;-83
2023/12/22 16:40:08;;;;;;;0.70;0.70;;;;;;;;;;5067201;28;20179;-83
2023/12/22 16:43:13;;;;;;;2.63;0.90;;;;;;;;;;5089755;28;20183;-82
2023/12/22 16:46:18;;;;;;;1.40;0.90;;;;;;;;;;5103650;28;20187;-83
2023/12/22 16:49:25;;;;;;;1.20;0.83;;;;;;;;;;5092703;28;20182;-81
2023/12/22 16:52:29;;;;;;;1.47;0.83;;;;;;;;;;5092586;28;20183;-82
2023/12/22 16:55:33;;;;;;;1.30;1.00;;;;;;;;;;5091824;28;20179;-83
2023/12/22 16:58:37;;;;;;;2.27;0.77;;;;;;;;;;5105044;28;20183;-81
2023/12/22 17:01:42;;;;;;;4.17;3.23;;;;;;;;;;5104142;28;20171;-83
2023/12/22 17:04:46;;;;;;;7.07;5.27;;;;;;;;;;5095471;28;20175;-86
2023/12/22 17:07:50;;;;;;;5.73;3.87;;;;;;;;;;5103041;28;20226;-86
2023/12/22 17:10:54;;;;;;;2.13;1.53;;;;;;;;;;5103083;28;20187;-86
2023/12/22 17:13:58;;;;;;;1.93;1.50;;;;;;;;;;5103826;28;20178;-81
2023/12/22 17:17:06;;;;;;;1.47;0.93;;;;;;;;;;5083326;28;20211;-82
2023/12/22 17:20:10;;;;;;;0.97;0.90;;;;;;;;;;5084461;28;20174;-82
2023/12/22 17:23:15;;;;;;;1.40;1.23;;;;;;;;;;5094305;28;20179;-81
2023/12/22 17:26:19;;;;;;;1.00;0.90;;;;;;;;;;5104450;28;20182;-83
2023/12/22 17:29:23;;;;;;;1.30;1.20;;;;;;;;;;5092478;28;20171;-83
2023/12/22 17:32:27;;;;;;;2.03;1.10;;;;;;;;;;5093470;28;20183;-83
2023/12/22 17:35:31;;;;;;;1.07;0.90;;;;;;;;;;5069010;28;20175;-83
2023/12/22 17:38:36;;;;;;;2.50;1.93;;;;;;;;;;5080269;28;20650;-82
2023/12/22 17:41:40;;;;;;;2.20;2.00;;;;;;;;;;5103487;28;20178;-81
2023/12/22 17:44:44;;;;;;;1.70;1.60;;;;;;;;;;5091277;28;20183;-82
2023/12/22 17:47:48;;;;;;;9.87;5.77;;;;;;;;;;5091523;28;20218;-82
2023/12/22 17:50:53;;;;;;;11.70;7.87;;;;;;;;;;5102700;28;20179;-86
2023/12/22 17:53:58;;;;;;;7.93;5.47;;;;;;;;;;5077644;28;20178;-86
2023/12/22 17:57:03;;;;;;;7.73;5.43;;;;;;;;;;5099176;28;20215;-87
2023/12/22 18:00:08;;;;;;;3.20;2.90;;;;;;;;;;5088536;28;20183;-86
2023/12/22 18:03:12;;;;;;;1.20;0.90;;;;;;;;;;5100976;28;20179;-87
2023/12/22 18:06:17;;;;;;;0.70;0.70;;;;;;;;;;5088233;28;20179;-86
2023/12/22 18:09:21;;;;;;;1.47;0.87;;;;;;;;;;5079898;28;20636;-86
2023/12/22 18:12:25;;;;;;;0.90;0.60;;;;;;;;;;5080454;28;20183;-86
2023/12/22 18:15:30;;;;;;;1.43;0.80;;;;;;;;;;5092648;28;20183;-85
2023/12/22 18:18:34;;;;;;;2.23;0.60;;;;;;;;;;5079830;28;20202;-86
2023/12/22 18:21:39;;;;;;;1.17;0.80;;;;;;;;;;5101410;28;20179;-86
2023/12/22 18:24:43;;;;;;;0.90;0.70;;;;;;;;;;5090112;28;20179;-86
2023/12/22 18:27:47;;;;;;;1.00;0.90;;;;;;;;;;5101094;28;20572;-87
2023/12/22 18:30:52;;;;;;;0.80;0.80;;;;;;;;;;5088421;28;20655;-86